sensor_id;sensor_type;location;lat;lon;timestamp;pressure;altitude;pressure_sealevel;temperature;humidity
4981;BME280;2507;50.392;7.482;2022-11-25T00:00:31;100595.84;;;5.53;82.59
4981;BME280;2507;50.392;7.482;2022-11-25T00:02:57;100602.19;;;5.64;82.47
4981;BME280;2507;50.392;7.482;2022-11-25T00:05:24;100602.97;;;5.66;82.46
4981;BME280;2507;50.392;7.482;2022-11-25T00:07:49;100591.28;;;5.58;82.95
4981;BME280;2507;50.392;7.482;2022-11-25T00:10:15;100579.25;;;5.55;82.88
4981;BME280;2507;50.392;7.482;2022-11-25T00:12:40;100581.75;;;5.57;82.84
4981;BME280;2507;50.392;7.482;2022-11-25T00:15:05;100582.69;;;5.56;83.31
4981;BME280;2507;50.392;7.482;2022-11-25T00:17:31;100580.69;;;5.61;82.71
4981;BME280;2507;50.392;7.482;2022-11-25T00:19:56;100577.19;;;5.62;83.14
4981;BME280;2507;50.392;7.482;2022-11-25T00:22:21;100581.41;;;5.47;83.36
4981;BME280;2507;50.392;7.482;2022-11-25T00:24:46;100587.25;;;5.16;83.41
4981;BME280;2507;50.392;7.482;2022-11-25T00:27:12;100587.88;;;5.04;84.41
4981;BME280;2507;50.392;7.482;2022-11-25T00:29:37;100580.22;;;5.18;83.87
4981;BME280;2507;50.392;7.482;2022-11-25T00:32:02;100575.72;;;5.22;83.13
4981;BME280;2507;50.392;7.482;2022-11-25T00:34:28;100575.97;;;5.17;83.25
4981;BME280;2507;50.392;7.482;2022-11-25T00:36:53;100591.16;;;5.08;83.40
4981;BME280;2507;50.392;7.482;2022-11-25T00:39:18;100586.53;;;4.79;84.44
4981;BME280;2507;50.392;7.482;2022-11-25T00:41:45;100591.91;;;4.93;85.12
4981;BME280;2507;50.392;7.482;2022-11-25T00:44:30;100581.22;;;4.99;83.68
4981;BME280;2507;50.392;7.482;2022-11-25T00:47:08;100578.97;;;4.91;84.57
4981;BME280;2507;50.392;7.482;2022-11-25T00:49:34;100596.72;;;5.00;83.88
4981;BME280;2507;50.392;7.482;2022-11-25T00:52:00;100582.13;;;4.98;85.28
4981;BME280;2507;50.392;7.482;2022-11-25T00:54:25;100588.13;;;5.00;84.86
4981;BME280;2507;50.392;7.482;2022-11-25T00:56:51;100594.75;;;5.05;84.28
4981;BME280;2507;50.392;7.482;2022-11-25T00:59:17;100594.63;;;5.08;84.88
4981;BME280;2507;50.392;7.482;2022-11-25T01:01:42;100587.22;;;5.18;84.36
4981;BME280;2507;50.392;7.482;2022-11-25T01:04:08;100588.06;;;5.36;84.94
4981;BME280;2507;50.392;7.482;2022-11-25T01:06:33;100591.41;;;5.55;84.25
4981;BME280;2507;50.392;7.482;2022-11-25T01:08:59;100593.69;;;5.44;83.71
4981;BME280;2507;50.392;7.482;2022-11-25T01:11:24;100586.06;;;5.41;84.03
4981;BME280;2507;50.392;7.482;2022-11-25T01:13:50;100585.69;;;5.48;84.49
4981;BME280;2507;50.392;7.482;2022-11-25T01:16:19;100576.84;;;5.68;84.35
4981;BME280;2507;50.392;7.482;2022-11-25T01:18:45;100586.50;;;5.66;84.24
4981;BME280;2507;50.392;7.482;2022-11-25T01:21:12;100583.53;;;5.39;83.80
4981;BME280;2507;50.392;7.482;2022-11-25T01:23:39;100584.81;;;5.13;84.20
4981;BME280;2507;50.392;7.482;2022-11-25T01:26:06;100587.19;;;5.01;84.78
4981;BME280;2507;50.392;7.482;2022-11-25T01:28:32;100578.59;;;4.99;85.26
4981;BME280;2507;50.392;7.482;2022-11-25T01:31:18;100583.47;;;5.24;84.56
4981;BME280;2507;50.392;7.482;2022-11-25T01:33:45;100575.44;;;5.28;83.87
4981;BME280;2507;50.392;7.482;2022-11-25T01:36:15;100573.06;;;5.41;83.15
4981;BME280;2507;50.392;7.482;2022-11-25T01:38:41;100569.47;;;5.43;82.72
4981;BME280;2507;50.392;7.482;2022-11-25T01:41:11;100579.19;;;5.40;82.89
4981;BME280;2507;50.392;7.482;2022-11-25T01:43:36;100580.00;;;5.40;83.21
4981;BME280;2507;50.392;7.482;2022-11-25T01:51:04;100564.47;;;5.56;83.87
4981;BME280;2507;50.392;7.482;2022-11-25T01:53:29;100573.41;;;5.67;82.90
4981;BME280;2507;50.392;7.482;2022-11-25T01:55:59;100570.19;;;5.79;83.14
4981;BME280;2507;50.392;7.482;2022-11-25T01:58:32;100557.00;;;5.82;82.41
4981;BME280;2507;50.392;7.482;2022-11-25T02:04:16;100567.47;;;5.65;83.87
4981;BME280;2507;50.392;7.482;2022-11-25T02:06:48;100560.66;;;5.63;84.22
4981;BME280;2507;50.392;7.482;2022-11-25T02:09:17;100558.16;;;5.77;85.01
4981;BME280;2507;50.392;7.482;2022-11-25T02:11:43;100548.16;;;5.86;84.33
4981;BME280;2507;50.392;7.482;2022-11-25T02:14:11;100549.09;;;5.85;84.04
4981;BME280;2507;50.392;7.482;2022-11-25T02:16:37;100556.56;;;5.91;84.55
4981;BME280;2507;50.392;7.482;2022-11-25T02:19:04;100544.31;;;5.93;84.43
4981;BME280;2507;50.392;7.482;2022-11-25T02:21:39;100547.50;;;5.98;83.94
4981;BME280;2507;50.392;7.482;2022-11-25T02:26:31;100551.25;;;5.93;85.10
4981;BME280;2507;50.392;7.482;2022-11-25T02:28:56;100556.44;;;6.10;85.15
4981;BME280;2507;50.392;7.482;2022-11-25T02:31:22;100557.59;;;6.20;84.15
4981;BME280;2507;50.392;7.482;2022-11-25T02:33:48;100552.09;;;6.26;83.64
4981;BME280;2507;50.392;7.482;2022-11-25T02:36:16;100550.06;;;6.31;83.76
4981;BME280;2507;50.392;7.482;2022-11-25T02:43:38;100556.16;;;6.47;83.96
4981;BME280;2507;50.392;7.482;2022-11-25T02:46:05;100554.28;;;6.49;83.80
4981;BME280;2507;50.392;7.482;2022-11-25T02:48:33;100543.66;;;6.68;84.43
4981;BME280;2507;50.392;7.482;2022-11-25T02:50:59;100544.50;;;6.84;83.32
4981;BME280;2507;50.392;7.482;2022-11-25T02:53:24;100540.31;;;6.81;83.00
4981;BME280;2507;50.392;7.482;2022-11-25T02:55:50;100541.13;;;6.82;83.04
4981;BME280;2507;50.392;7.482;2022-11-25T02:58:16;100544.34;;;6.71;82.67
4981;BME280;2507;50.392;7.482;2022-11-25T03:00:42;100533.00;;;6.72;83.70
4981;BME280;2507;50.392;7.482;2022-11-25T03:03:08;100536.75;;;6.82;83.17
4981;BME280;2507;50.392;7.482;2022-11-25T03:05:33;100523.75;;;6.96;83.87
4981;BME280;2507;50.392;7.482;2022-11-25T03:07:59;100525.38;;;6.99;83.20
4981;BME280;2507;50.392;7.482;2022-11-25T03:10:24;100528.25;;;6.94;83.68
4981;BME280;2507;50.392;7.482;2022-11-25T03:12:49;100536.59;;;6.85;84.19
4981;BME280;2507;50.392;7.482;2022-11-25T03:15:15;100535.31;;;6.92;83.87
4981;BME280;2507;50.392;7.482;2022-11-25T03:17:41;100533.94;;;7.01;84.53
4981;BME280;2507;50.392;7.482;2022-11-25T03:20:07;100534.84;;;7.15;83.28
4981;BME280;2507;50.392;7.482;2022-11-25T03:22:33;100535.69;;;7.16;83.02
4981;BME280;2507;50.392;7.482;2022-11-25T03:24:58;100525.53;;;7.25;83.51
4981;BME280;2507;50.392;7.482;2022-11-25T03:27:24;100531.06;;;7.35;83.21
4981;BME280;2507;50.392;7.482;2022-11-25T03:29:49;100537.69;;;7.41;82.54
4981;BME280;2507;50.392;7.482;2022-11-25T03:32:14;100535.09;;;7.41;82.58
4981;BME280;2507;50.392;7.482;2022-11-25T03:34:40;100541.81;;;7.45;83.43
4981;BME280;2507;50.392;7.482;2022-11-25T03:37:05;100540.31;;;7.55;82.73
4981;BME280;2507;50.392;7.482;2022-11-25T03:39:30;100539.97;;;7.61;82.15
4981;BME280;2507;50.392;7.482;2022-11-25T03:41:56;100536.59;;;7.59;82.71
4981;BME280;2507;50.392;7.482;2022-11-25T03:44:21;100533.84;;;7.62;82.96
4981;BME280;2507;50.392;7.482;2022-11-25T03:46:46;100521.34;;;7.67;82.64
4981;BME280;2507;50.392;7.482;2022-11-25T03:49:12;100525.44;;;7.85;82.56
4981;BME280;2507;50.392;7.482;2022-11-25T03:51:37;100528.59;;;7.90;81.95
4981;BME280;2507;50.392;7.482;2022-11-25T03:54:02;100535.44;;;7.92;81.78
4981;BME280;2507;50.392;7.482;2022-11-25T03:56:27;100521.81;;;8.01;81.91
4981;BME280;2507;50.392;7.482;2022-11-25T03:58:53;100527.00;;;8.15;81.37
4981;BME280;2507;50.392;7.482;2022-11-25T04:01:18;100513.28;;;8.12;80.12
4981;BME280;2507;50.392;7.482;2022-11-25T04:03:43;100515.44;;;7.91;80.20
4981;BME280;2507;50.392;7.482;2022-11-25T04:06:09;100517.97;;;7.65;81.12
4981;BME280;2507;50.392;7.482;2022-11-25T04:08:34;100522.66;;;7.30;81.92
4981;BME280;2507;50.392;7.482;2022-11-25T04:10:59;100525.47;;;6.97;82.98
4981;BME280;2507;50.392;7.482;2022-11-25T04:13:25;100534.91;;;6.84;82.98
4981;BME280;2507;50.392;7.482;2022-11-25T04:15:50;100539.69;;;6.92;83.71
4981;BME280;2507;50.392;7.482;2022-11-25T04:18:17;100535.91;;;6.97;84.22
4981;BME280;2507;50.392;7.482;2022-11-25T04:20:43;100533.84;;;7.18;84.50
4981;BME280;2507;50.392;7.482;2022-11-25T04:23:09;100522.91;;;7.11;83.48
4981;BME280;2507;50.392;7.482;2022-11-25T04:25:36;100527.34;;;7.09;84.61
4981;BME280;2507;50.392;7.482;2022-11-25T04:28:02;100532.75;;;7.36;83.38
4981;BME280;2507;50.392;7.482;2022-11-25T04:30:27;100540.72;;;7.19;83.26
4981;BME280;2507;50.392;7.482;2022-11-25T04:32:53;100545.06;;;7.04;84.70
4981;BME280;2507;50.392;7.482;2022-11-25T04:35:18;100549.03;;;6.96;85.58
4981;BME280;2507;50.392;7.482;2022-11-25T04:37:44;100549.25;;;7.37;84.97
4981;BME280;2507;50.392;7.482;2022-11-25T04:40:09;100574.81;;;7.46;83.37
4981;BME280;2507;50.392;7.482;2022-11-25T04:42:35;100573.56;;;7.67;82.37
4981;BME280;2507;50.392;7.482;2022-11-25T04:45:10;100571.94;;;7.50;83.63
4981;BME280;2507;50.392;7.482;2022-11-25T04:47:37;100567.44;;;7.38;83.47
4981;BME280;2507;50.392;7.482;2022-11-25T04:50:04;100560.97;;;7.73;82.83
4981;BME280;2507;50.392;7.482;2022-11-25T04:52:30;100562.16;;;7.68;81.65
4981;BME280;2507;50.392;7.482;2022-11-25T04:54:56;100556.03;;;7.83;81.08
4981;BME280;2507;50.392;7.482;2022-11-25T04:57:21;100551.72;;;7.82;81.52
4981;BME280;2507;50.392;7.482;2022-11-25T04:59:46;100552.22;;;7.88;81.18
4981;BME280;2507;50.392;7.482;2022-11-25T05:02:20;100555.47;;;8.06;80.60
4981;BME280;2507;50.392;7.482;2022-11-25T05:04:47;100549.50;;;8.04;79.82
4981;BME280;2507;50.392;7.482;2022-11-25T05:07:14;100543.00;;;8.25;78.31
4981;BME280;2507;50.392;7.482;2022-11-25T05:09:40;100535.22;;;8.23;79.07
4981;BME280;2507;50.392;7.482;2022-11-25T05:12:06;100533.84;;;8.32;78.11
4981;BME280;2507;50.392;7.482;2022-11-25T05:14:32;100534.28;;;8.39;77.49
4981;BME280;2507;50.392;7.482;2022-11-25T05:17:00;100534.00;;;8.15;78.45
4981;BME280;2507;50.392;7.482;2022-11-25T05:19:25;100541.84;;;8.29;78.40
4981;BME280;2507;50.392;7.482;2022-11-25T05:21:51;100548.38;;;8.08;78.39
4981;BME280;2507;50.392;7.482;2022-11-25T05:24:16;100552.66;;;7.95;79.22
4981;BME280;2507;50.392;7.482;2022-11-25T05:26:41;100544.38;;;7.74;81.15
4981;BME280;2507;50.392;7.482;2022-11-25T05:29:08;100544.75;;;7.68;82.42
4981;BME280;2507;50.392;7.482;2022-11-25T05:31:33;100552.97;;;7.76;82.33
4981;BME280;2507;50.392;7.482;2022-11-25T05:34:00;100555.19;;;7.82;82.05
4981;BME280;2507;50.392;7.482;2022-11-25T05:36:26;100553.88;;;7.75;81.33
4981;BME280;2507;50.392;7.482;2022-11-25T05:38:51;100568.81;;;7.44;82.36
4981;BME280;2507;50.392;7.482;2022-11-25T05:41:17;100565.19;;;7.32;83.42
4981;BME280;2507;50.392;7.482;2022-11-25T05:43:42;100571.94;;;7.20;84.03
4981;BME280;2507;50.392;7.482;2022-11-25T05:46:08;100581.06;;;7.13;85.09
4981;BME280;2507;50.392;7.482;2022-11-25T05:48:33;100575.06;;;7.11;85.25
4981;BME280;2507;50.392;7.482;2022-11-25T05:51:02;100572.03;;;7.19;85.15
4981;BME280;2507;50.392;7.482;2022-11-25T05:53:28;100588.16;;;7.25;85.38
4981;BME280;2507;50.392;7.482;2022-11-25T05:55:59;100586.97;;;7.31;86.05
4981;BME280;2507;50.392;7.482;2022-11-25T05:58:25;100590.47;;;7.46;85.44
4981;BME280;2507;50.392;7.482;2022-11-25T06:00:52;100595.75;;;7.74;85.37
4981;BME280;2507;50.392;7.482;2022-11-25T06:03:17;100599.78;;;7.93;83.65
4981;BME280;2507;50.392;7.482;2022-11-25T06:05:43;100594.31;;;8.12;83.32
4981;BME280;2507;50.392;7.482;2022-11-25T06:08:09;100604.00;;;8.10;82.74
4981;BME280;2507;50.392;7.482;2022-11-25T06:10:37;100609.03;;;7.99;83.00
4981;BME280;2507;50.392;7.482;2022-11-25T06:13:03;100610.34;;;7.92;83.53
4981;BME280;2507;50.392;7.482;2022-11-25T06:15:28;100611.75;;;8.11;83.47
4981;BME280;2507;50.392;7.482;2022-11-25T06:17:54;100606.66;;;8.24;83.40
4981;BME280;2507;50.392;7.482;2022-11-25T06:20:20;100607.59;;;8.37;82.73
4981;BME280;2507;50.392;7.482;2022-11-25T06:22:45;100606.09;;;8.47;82.77
4981;BME280;2507;50.392;7.482;2022-11-25T06:25:11;100609.91;;;8.56;82.30
4981;BME280;2507;50.392;7.482;2022-11-25T06:27:36;100606.13;;;8.74;81.71
4981;BME280;2507;50.392;7.482;2022-11-25T06:30:02;100597.69;;;8.83;80.17
4981;BME280;2507;50.392;7.482;2022-11-25T06:32:27;100599.28;;;8.85;80.28
4981;BME280;2507;50.392;7.482;2022-11-25T06:34:52;100607.19;;;8.98;79.68
4981;BME280;2507;50.392;7.482;2022-11-25T06:37:17;100600.56;;;8.92;79.42
4981;BME280;2507;50.392;7.482;2022-11-25T06:39:43;100610.09;;;8.93;79.43
4981;BME280;2507;50.392;7.482;2022-11-25T06:42:08;100607.47;;;8.93;79.74
4981;BME280;2507;50.392;7.482;2022-11-25T06:44:34;100610.94;;;8.94;80.10
4981;BME280;2507;50.392;7.482;2022-11-25T06:46:59;100619.97;;;8.76;80.39
4981;BME280;2507;50.392;7.482;2022-11-25T06:49:25;100624.97;;;8.79;80.38
4981;BME280;2507;50.392;7.482;2022-11-25T06:51:50;100622.84;;;8.85;80.69
4981;BME280;2507;50.392;7.482;2022-11-25T06:54:16;100629.16;;;8.95;80.27
4981;BME280;2507;50.392;7.482;2022-11-25T06:56:41;100628.19;;;8.96;80.64
4981;BME280;2507;50.392;7.482;2022-11-25T06:59:07;100624.44;;;8.74;80.68
4981;BME280;2507;50.392;7.482;2022-11-25T07:01:33;100629.41;;;8.64;81.35
4981;BME280;2507;50.392;7.482;2022-11-25T07:04:03;100643.59;;;8.60;81.35
4981;BME280;2507;50.392;7.482;2022-11-25T07:06:30;100642.59;;;8.63;81.30
4981;BME280;2507;50.392;7.482;2022-11-25T07:08:55;100656.97;;;8.70;81.46
4981;BME280;2507;50.392;7.482;2022-11-25T07:11:24;100660.59;;;8.67;81.28
4981;BME280;2507;50.392;7.482;2022-11-25T07:13:57;100666.75;;;8.80;81.85
4981;BME280;2507;50.392;7.482;2022-11-25T07:16:23;100664.69;;;8.85;80.77
4981;BME280;2507;50.392;7.482;2022-11-25T07:18:49;100669.00;;;8.86;81.32
4981;BME280;2507;50.392;7.482;2022-11-25T07:21:17;100671.41;;;8.89;81.44
4981;BME280;2507;50.392;7.482;2022-11-25T07:23:44;100674.69;;;8.79;81.89
4981;BME280;2507;50.392;7.482;2022-11-25T07:26:15;100678.91;;;8.67;82.92
4981;BME280;2507;50.392;7.482;2022-11-25T07:28:42;100677.78;;;8.85;82.90
4981;BME280;2507;50.392;7.482;2022-11-25T07:33:41;100686.91;;;9.06;82.13
4981;BME280;2507;50.392;7.482;2022-11-25T07:36:08;100686.31;;;9.15;82.03
4981;BME280;2507;50.392;7.482;2022-11-25T07:38:35;100694.44;;;9.25;81.52
4981;BME280;2507;50.392;7.482;2022-11-25T07:41:20;100685.41;;;9.29;81.27
4981;BME280;2507;50.392;7.482;2022-11-25T07:43:48;100684.19;;;9.35;81.00
4981;BME280;2507;50.392;7.482;2022-11-25T07:48:40;100678.91;;;9.49;79.15
4981;BME280;2507;50.392;7.482;2022-11-25T07:53:44;100690.44;;;9.05;81.61
4981;BME280;2507;50.392;7.482;2022-11-25T07:56:10;100691.69;;;8.86;83.10
4981;BME280;2507;50.392;7.482;2022-11-25T07:58:35;100705.44;;;8.61;84.32
4981;BME280;2507;50.392;7.482;2022-11-25T08:01:05;100700.03;;;8.64;85.20
4981;BME280;2507;50.392;7.482;2022-11-25T08:03:31;100699.28;;;8.76;85.01
4981;BME280;2507;50.392;7.482;2022-11-25T08:06:02;100703.38;;;8.94;84.24
4981;BME280;2507;50.392;7.482;2022-11-25T08:08:28;100713.00;;;8.94;84.85
4981;BME280;2507;50.392;7.482;2022-11-25T08:10:53;100707.91;;;9.19;83.64
4981;BME280;2507;50.392;7.482;2022-11-25T08:13:18;100707.69;;;9.22;83.40
4981;BME280;2507;50.392;7.482;2022-11-25T08:15:44;100705.72;;;9.25;82.90
4981;BME280;2507;50.392;7.482;2022-11-25T08:18:09;100721.63;;;9.22;82.20
4981;BME280;2507;50.392;7.482;2022-11-25T08:20:35;100736.66;;;8.92;83.01
4981;BME280;2507;50.392;7.482;2022-11-25T08:23:00;100743.47;;;9.09;84.14
4981;BME280;2507;50.392;7.482;2022-11-25T08:25:26;100708.50;;;9.37;83.41
4981;BME280;2507;50.392;7.482;2022-11-25T08:27:53;100726.00;;;9.36;81.70
4981;BME280;2507;50.392;7.482;2022-11-25T08:30:19;100708.22;;;9.41;82.11
4981;BME280;2507;50.392;7.482;2022-11-25T08:32:45;100711.84;;;9.39;81.22
4981;BME280;2507;50.392;7.482;2022-11-25T08:35:11;100731.25;;;9.36;82.03
4981;BME280;2507;50.392;7.482;2022-11-25T08:37:36;100747.50;;;9.41;82.16
4981;BME280;2507;50.392;7.482;2022-11-25T08:40:02;100729.13;;;9.55;81.38
4981;BME280;2507;50.392;7.482;2022-11-25T08:42:28;100737.13;;;9.40;81.91
4981;BME280;2507;50.392;7.482;2022-11-25T08:44:54;100749.94;;;9.30;83.06
4981;BME280;2507;50.392;7.482;2022-11-25T08:47:20;100751.84;;;9.14;83.13
4981;BME280;2507;50.392;7.482;2022-11-25T08:49:49;100750.09;;;9.14;84.39
4981;BME280;2507;50.392;7.482;2022-11-25T08:52:14;100757.81;;;9.30;84.20
4981;BME280;2507;50.392;7.482;2022-11-25T08:54:40;100752.34;;;9.74;83.33
4981;BME280;2507;50.392;7.482;2022-11-25T08:57:05;100761.41;;;9.95;80.40
4981;BME280;2507;50.392;7.482;2022-11-25T08:59:31;100764.72;;;9.72;80.45
4981;BME280;2507;50.392;7.482;2022-11-25T09:01:56;100756.75;;;9.73;81.94
4981;BME280;2507;50.392;7.482;2022-11-25T09:04:21;100764.88;;;9.95;81.73
4981;BME280;2507;50.392;7.482;2022-11-25T09:06:47;100767.09;;;10.28;80.97
4981;BME280;2507;50.392;7.482;2022-11-25T09:09:12;100764.09;;;10.59;79.52
4981;BME280;2507;50.392;7.482;2022-11-25T09:11:37;100758.59;;;10.87;77.27
4981;BME280;2507;50.392;7.482;2022-11-25T09:14:03;100767.41;;;10.99;76.10
4981;BME280;2507;50.392;7.482;2022-11-25T09:16:28;100777.50;;;11.05;74.44
4981;BME280;2507;50.392;7.482;2022-11-25T09:18:53;100767.34;;;10.75;75.42
4981;BME280;2507;50.392;7.482;2022-11-25T09:21:18;100776.13;;;10.49;77.00
4981;BME280;2507;50.392;7.482;2022-11-25T09:23:44;100773.09;;;10.43;77.78
4981;BME280;2507;50.392;7.482;2022-11-25T09:26:26;100778.44;;;10.28;79.77
4981;BME280;2507;50.392;7.482;2022-11-25T09:28:53;100782.47;;;10.20;81.54
4981;BME280;2507;50.392;7.482;2022-11-25T09:31:19;100799.03;;;10.47;81.22
4981;BME280;2507;50.392;7.482;2022-11-25T09:33:45;100785.94;;;10.72;81.41
4981;BME280;2507;50.392;7.482;2022-11-25T09:36:12;100792.66;;;10.89;81.60
4981;BME280;2507;50.392;7.482;2022-11-25T09:38:38;100794.59;;;11.23;81.10
4981;BME280;2507;50.392;7.482;2022-11-25T09:49:29;100792.91;;;12.18;77.22
4981;BME280;2507;50.392;7.482;2022-11-25T09:52:18;100794.94;;;12.14;75.11
4981;BME280;2507;50.392;7.482;2022-11-25T09:54:52;100799.41;;;12.01;76.95
4981;BME280;2507;50.392;7.482;2022-11-25T09:57:27;100798.88;;;11.73;77.07
4981;BME280;2507;50.392;7.482;2022-11-25T10:00:01;100813.16;;;11.45;79.45
4981;BME280;2507;50.392;7.482;2022-11-25T10:02:37;100815.47;;;11.37;79.31
4981;BME280;2507;50.392;7.482;2022-11-25T10:05:33;100810.22;;;11.37;79.64
4981;BME280;2507;50.392;7.482;2022-11-25T10:08:15;100816.34;;;11.74;78.88
4981;BME280;2507;50.392;7.482;2022-11-25T10:10:53;100811.78;;;11.88;77.61
4981;BME280;2507;50.392;7.482;2022-11-25T10:13:30;100818.19;;;12.08;76.73
4981;BME280;2507;50.392;7.482;2022-11-25T10:16:00;100823.59;;;12.41;76.24
4981;BME280;2507;50.392;7.482;2022-11-25T10:18:30;100820.31;;;12.61;75.13
4981;BME280;2507;50.392;7.482;2022-11-25T10:20:58;100814.13;;;12.84;74.57
4981;BME280;2507;50.392;7.482;2022-11-25T10:23:27;100821.19;;;12.95;74.49
4981;BME280;2507;50.392;7.482;2022-11-25T10:26:00;100822.16;;;12.94;73.88
4981;BME280;2507;50.392;7.482;2022-11-25T10:28:32;100825.66;;;13.16;73.44
4981;BME280;2507;50.392;7.482;2022-11-25T10:31:14;100823.03;;;13.05;72.23
4981;BME280;2507;50.392;7.482;2022-11-25T10:33:46;100828.22;;;13.18;72.16
4981;BME280;2507;50.392;7.482;2022-11-25T10:36:29;100832.50;;;13.08;71.61
4981;BME280;2507;50.392;7.482;2022-11-25T10:41:34;100836.59;;;13.45;69.87
4981;BME280;2507;50.392;7.482;2022-11-25T10:44:02;100832.63;;;13.51;70.47
4981;BME280;2507;50.392;7.482;2022-11-25T10:46:43;100838.34;;;13.78;68.92
4981;BME280;2507;50.392;7.482;2022-11-25T10:49:29;100844.59;;;13.55;68.79
4981;BME280;2507;50.392;7.482;2022-11-25T10:51:55;100835.00;;;13.65;69.16
4981;BME280;2507;50.392;7.482;2022-11-25T10:54:23;100846.44;;;13.97;66.70
4981;BME280;2507;50.392;7.482;2022-11-25T10:56:51;100832.63;;;14.04;66.62
4981;BME280;2507;50.392;7.482;2022-11-25T10:59:35;100830.41;;;14.20;66.67
4981;BME280;2507;50.392;7.482;2022-11-25T11:02:27;100831.91;;;14.02;64.95
4981;BME280;2507;50.392;7.482;2022-11-25T11:07:38;100831.38;;;14.19;63.95
4981;BME280;2507;50.392;7.482;2022-11-25T11:10:19;100830.97;;;14.24;63.54
4981;BME280;2507;50.392;7.482;2022-11-25T11:15:22;100835.09;;;14.28;62.86
4981;BME280;2507;50.392;7.482;2022-11-25T11:17:48;100842.25;;;14.37;62.02
4981;BME280;2507;50.392;7.482;2022-11-25T11:20:29;100849.09;;;14.40;61.82
4981;BME280;2507;50.392;7.482;2022-11-25T11:23:10;100847.72;;;14.66;60.88
4981;BME280;2507;50.392;7.482;2022-11-25T11:25:39;100853.84;;;14.46;60.88
4981;BME280;2507;50.392;7.482;2022-11-25T11:28:24;100848.72;;;14.33;62.46
4981;BME280;2507;50.392;7.482;2022-11-25T11:30:59;100854.28;;;14.19;64.23
4981;BME280;2507;50.392;7.482;2022-11-25T11:33:32;100856.28;;;14.38;64.35
4981;BME280;2507;50.392;7.482;2022-11-25T11:36:14;100863.19;;;14.50;63.80
4981;BME280;2507;50.392;7.482;2022-11-25T11:38:55;100861.25;;;14.52;64.67
4981;BME280;2507;50.392;7.482;2022-11-25T11:41:38;100861.72;;;14.57;64.58
4981;BME280;2507;50.392;7.482;2022-11-25T11:44:15;100882.59;;;14.80;63.89
4981;BME280;2507;50.392;7.482;2022-11-25T11:49:46;100872.47;;;15.06;62.99
4981;BME280;2507;50.392;7.482;2022-11-25T11:52:35;100872.31;;;15.28;61.52
4981;BME280;2507;50.392;7.482;2022-11-25T11:55:26;100881.03;;;15.40;60.56
4981;BME280;2507;50.392;7.482;2022-11-25T11:58:12;100882.31;;;15.24;60.03
4981;BME280;2507;50.392;7.482;2022-11-25T12:00:53;100874.25;;;15.26;59.43
4981;BME280;2507;50.392;7.482;2022-11-25T12:03:24;100875.91;;;14.97;59.33
4981;BME280;2507;50.392;7.482;2022-11-25T12:05:52;100884.47;;;14.89;59.52
4981;BME280;2507;50.392;7.482;2022-11-25T12:11:17;100893.47;;;15.28;59.04
4981;BME280;2507;50.392;7.482;2022-11-25T12:14:20;100915.50;;;15.59;58.74
4981;BME280;2507;50.392;7.482;2022-11-25T12:16:44;100899.34;;;15.92;56.60
4981;BME280;2507;50.392;7.482;2022-11-25T12:19:32;100900.16;;;15.83;55.78
4981;BME280;2507;50.392;7.482;2022-11-25T12:22:06;100906.28;;;15.53;55.40
4981;BME280;2507;50.392;7.482;2022-11-25T12:24:56;100908.00;;;15.13;55.60
4981;BME280;2507;50.392;7.482;2022-11-25T12:27:32;100910.94;;;14.78;56.74
4981;BME280;2507;50.392;7.482;2022-11-25T12:30:06;100923.59;;;14.75;56.89
4981;BME280;2507;50.392;7.482;2022-11-25T12:35:57;100931.78;;;14.72;56.62
4981;BME280;2507;50.392;7.482;2022-11-25T12:43:53;100935.97;;;14.74;55.90
4981;BME280;2507;50.392;7.482;2022-11-25T12:46:30;100938.75;;;14.93;55.78
4981;BME280;2507;50.392;7.482;2022-11-25T12:48:57;100937.53;;;14.97;55.29
4981;BME280;2507;50.392;7.482;2022-11-25T13:08:20;100953.66;;;15.56;53.23
4981;BME280;2507;50.392;7.482;2022-11-25T13:11:06;100962.06;;;15.41;53.29
4981;BME280;2507;50.392;7.482;2022-11-25T13:16:20;100963.06;;;15.28;53.44
4981;BME280;2507;50.392;7.482;2022-11-25T13:18:46;100964.09;;;15.16;54.23
4981;BME280;2507;50.392;7.482;2022-11-25T13:21:13;100967.13;;;15.12;54.76
4981;BME280;2507;50.392;7.482;2022-11-25T13:23:46;100967.78;;;15.25;54.71
4981;BME280;2507;50.392;7.482;2022-11-25T13:28:52;100973.78;;;15.27;54.46
4981;BME280;2507;50.392;7.482;2022-11-25T13:31:30;100973.28;;;15.12;54.93
4981;BME280;2507;50.392;7.482;2022-11-25T13:34:15;100972.22;;;15.04;54.46
4981;BME280;2507;50.392;7.482;2022-11-25T13:36:48;100979.00;;;15.17;54.30
4981;BME280;2507;50.392;7.482;2022-11-25T13:39:34;100976.63;;;15.14;54.55
4981;BME280;2507;50.392;7.482;2022-11-25T13:42:09;100977.41;;;15.47;53.55
4981;BME280;2507;50.392;7.482;2022-11-25T13:44:50;100981.03;;;15.34;53.76
4981;BME280;2507;50.392;7.482;2022-11-25T13:47:34;100989.31;;;15.00;54.90
4981;BME280;2507;50.392;7.482;2022-11-25T13:52:47;101004.63;;;14.43;56.98
4981;BME280;2507;50.392;7.482;2022-11-25T13:57:44;100993.94;;;14.22;57.78
4981;BME280;2507;50.392;7.482;2022-11-25T14:02:42;101007.63;;;14.05;58.42
4981;BME280;2507;50.392;7.482;2022-11-25T14:24:45;101018.06;;;13.84;59.29
4981;BME280;2507;50.392;7.482;2022-11-25T14:27:25;101025.13;;;14.17;58.85
4981;BME280;2507;50.392;7.482;2022-11-25T14:29:58;101030.53;;;14.04;59.43
4981;BME280;2507;50.392;7.482;2022-11-25T14:35:25;101036.41;;;14.19;59.58
4981;BME280;2507;50.392;7.482;2022-11-25T14:38:02;101032.47;;;14.24;59.61
4981;BME280;2507;50.392;7.482;2022-11-25T14:40:35;101039.53;;;14.24;59.80
4981;BME280;2507;50.392;7.482;2022-11-25T14:43:06;101035.44;;;14.20;60.03
4981;BME280;2507;50.392;7.482;2022-11-25T14:45:33;101036.53;;;14.17;59.62
4981;BME280;2507;50.392;7.482;2022-11-25T14:48:19;101039.06;;;14.19;58.86
4981;BME280;2507;50.392;7.482;2022-11-25T14:53:21;101050.31;;;13.88;60.85
4981;BME280;2507;50.392;7.482;2022-11-25T14:55:47;101049.06;;;13.59;62.47
4981;BME280;2507;50.392;7.482;2022-11-25T14:58:13;101050.16;;;13.56;62.90
4981;BME280;2507;50.392;7.482;2022-11-25T15:01:16;101048.47;;;13.55;62.93
4981;BME280;2507;50.392;7.482;2022-11-25T15:03:46;101058.94;;;13.33;64.45
4981;BME280;2507;50.392;7.482;2022-11-25T15:06:12;101047.13;;;13.15;65.47
4981;BME280;2507;50.392;7.482;2022-11-25T15:08:41;101061.84;;;13.06;65.97
4981;BME280;2507;50.392;7.482;2022-11-25T15:11:18;101063.53;;;12.95;66.85
4981;BME280;2507;50.392;7.482;2022-11-25T15:13:45;101067.41;;;13.02;66.22
4981;BME280;2507;50.392;7.482;2022-11-25T15:16:15;101080.56;;;12.91;66.97